Weather observations for the past three days for
Pinal Airpark
Imperial (Metric)
Date Time (mst) Wind (mph) Vis. (mi.) Weather Sky Cond. Temperature (ºF) Relative Humidity Wind Chill (°F) Heat Index (°F) Pressure Precipitation (in)
Air Dwpt 6 hour altimeter (in) sea level (mb) 1 hr 3 hr 6 hr
Max. Min.
06 09:50 Calm 10.00 Fair CLR 87.8 59 38% 87 29.95 0.0
06 09:35 Calm 10.00 Fair CLR 86 57.2 38% 85 29.95 0.0
06 09:10 Calm 10.00 Fair CLR 86 60.8 43% 86 29.95 0.0
06 08:50 Calm 10.00 Fair CLR 84.2 62.6 48% 85 29.95 0.0
06 08:35 Calm 10.00 Fair CLR 82.4 60.8 48% 83 29.95 0.0
06 08:15 Calm 10.00 Fair CLR 80.6 62.6 54% 82 29.95 0.0
06 07:50 Calm 10.00 Fair CLR 77 64.4 65% 79 29.96 0.0
06 07:35 Calm 10.00 Fair CLR 77 64.4 65% 79 29.96 0.0
06 07:15 Calm 10.00 Fair CLR 77 62.6 61% 79 29.95 0.0
06 06:55 Calm 10.00 Fair CLR 77 62.6 61% 79 29.94 0.0
06 06:35 Calm 10.00 Fair CLR 77 62.6 61% 79 29.94 0.0
06 06:15 SE 6 10.00 Fair CLR 77 60.8 57% 79 29.94 0.0
06 05:35 SE 3 10.00 Fair CLR 77 60.8 57% 79 29.92 0.0
06 05:15 SE 3 10.00 Fair CLR 77 62.6 61% 79 29.92 0.0
06 04:50 Calm 10.00 A Few Clouds FEW049 77 62.6 61% 79 29.92 0.0
06 04:35 Calm 10.00 A Few Clouds FEW049 77 60.8 57% 79 29.92 0.0
06 04:15 E 3 10.00 A Few Clouds FEW048 77 60.8 57% 79 29.92 0.0
06 03:50 Calm 10.00 A Few Clouds FEW046 75.2 62.6 65% 77 29.91 0.0
06 03:35 Calm 10.00 A Few Clouds FEW045 FEW050 77 62.6 61% 79 29.92 0.0
06 03:15 Calm 10.00 Partly Cloudy FEW046 SCT050 77 62.6 61% 79 29.91 0.0
06 02:50 Calm 10.00 A Few Clouds FEW047 78.8 60.8 54% 80 29.91 0.0
06 02:35 Calm 10.00 A Few Clouds FEW049 77 60.8 57% 79 29.91 0.0
06 02:15 W 3 10.00 A Few Clouds FEW044 78.8 59 51% 80 29.91 0.0
06 01:50 Calm 10.00 Fair CLR 77 59 54% 79 29.91 0.0
06 01:35 Calm 10.00 Fair CLR 78.8 59 51% 80 29.91 0.0
06 01:15 Calm 10.00 A Few Clouds FEW046 80.6 59 48% 81 29.92 0.0
06 00:50 W 3 10.00 A Few Clouds FEW046 82.4 57.2 42% 82 29.92 0.0
06 00:35 W 5 10.00 A Few Clouds FEW046 82.4 57.2 42% 82 29.92 0.0
06 00:15 NW 6 10.00 A Few Clouds FEW048 84.2 55.4 37% 83 29.93 0.0
05 23:55 NW 6 10.00 Fair CLR 84.2 55.4 37% 83 29.93 0.0
05 23:35 NW 5 10.00 Fair CLR 84.2 55.4 37% 83 29.93 0.0
05 23:15 NW 5 10.00 Fair CLR 84.2 55.4 37% 83 29.93 0.0
05 22:55 Calm 10.00 A Few Clouds FEW049 86 55.4 35% 85 29.93 0.0
05 22:35 Calm 10.00 A Few Clouds FEW047 84.2 57.2 40% 83 29.93 0.0
05 22:15 Calm 10.00 Partly Cloudy SCT048 84.2 57.2 40% 83 29.93 0.0
05 21:55 Calm 10.00 Partly Cloudy SCT049 86 57.2 38% 85 29.93 0.0
05 21:35 Calm 10.00 A Few Clouds FEW047 87.8 55.4 33% 86 29.93 0.0
05 21:10 Calm 10.00 Fair CLR 89.6 53.6 29% 87 29.93 0.0
05 20:55 Vrbl 3 10.00 Fair CLR 89.6 53.6 29% 87 29.93 0.0
05 20:35 NW 3 10.00 Fair CLR 89.6 53.6 29% 87 29.92 0.0
05 20:15 NW 5 10.00 Fair CLR 91.4 55.4 30% 90 29.91 0.0
05 19:55 NW 6 10.00 Fair CLR 91.4 57.2 32% 90 29.91 0.0
05 19:35 N 5 10.00 Fair CLR 93.2 57.2 30% 92 29.9 0.0
05 19:15 N 6 10.00 Fair CLR 93.2 57.2 30% 92 29.89 0.0
05 18:55 NW 6 10.00 Fair CLR 95 57.2 28% 94 29.89 0.0
05 18:35 NW 9 10.00 Fair CLR 95 57.2 28% 94 29.89 0.0
05 18:15 NW 8 G 14 10.00 Fair CLR 96.8 57.2 27% 96 29.89 0.0
05 17:55 NW 8 10.00 Fair CLR 96.8 57.2 27% 96 29.89 0.0
05 17:35 NW 8 G 14 10.00 Fair CLR 96.8 57.2 27% 96 29.89 0.0
05 17:15 NW 9 10.00 Fair CLR 96.8 57.2 27% 96 29.89 0.0
05 16:55 NW 8 G 15 10.00 Fair CLR 98.6 55.4 24% 97 29.89 0.0
05 16:35 NW 8 G 16 10.00 Fair CLR 98.6 57.2 25% 98 29.89 0.0
05 16:15 NW 8 G 14 10.00 Fair CLR 98.6 57.2 25% 98 29.89 0.0
05 15:55 W 7 10.00 Fair CLR 98.6 57.2 25% 98 29.89 0.0
05 15:35 NW 6 G 14 10.00 Fair CLR 98.6 57.2 25% 98 29.9 0.0
05 15:15 NW 7 10.00 Fair CLR 98.6 59 27% 98 29.91 0.0
05 14:55 W 7 G 15 10.00 Fair CLR 98.6 59 27% 98 29.91 0.0
05 14:35 N 8 10.00 Fair CLR 98.6 59 27% 98 29.92 0.0
05 14:10 NW 10 10.00 Fair CLR 98.6 59 27% 98 29.93 0.0
05 13:55 NW 6 G 13 10.00 Fair CLR 96.8 59 28% 96 29.94 0.0
05 13:35 W 10 10.00 Fair CLR 98.6 59 27% 98 29.94 0.0
05 13:15 Vrbl 6 10.00 Fair CLR 96.8 57.2 27% 96 29.95 0.0
05 12:55 E 6 10.00 Fair CLR 96.8 57.2 27% 96 29.96 0.0
05 10:55 Calm 10.00 Fair CLR 91.4 59 34% 91 30.01 0.0
05 10:35 N 3 10.00 Fair CLR 91.4 60.8 36% 91 30.01 0.0
05 10:15 Calm 10.00 Fair CLR 89.6 60.8 38% 90 30.01 0.0
05 09:55 Calm 10.00 Fair CLR 87.8 62.6 43% 88 30.01 0.0
05 09:35 SE 5 10.00 Fair CLR 87.8 64.4 46% 89 30.02 0.0
05 09:10 SE 5 10.00 Fair CLR 86 66.2 52% 88 30.01 0.0
05 08:55 Vrbl 5 10.00 Fair CLR 86 66.2 52% 88 30.01 0.0
05 08:35 SE 5 10.00 Fair CLR 84.2 64.4 51% 86 30.01 0.0
05 08:15 SE 6 10.00 Fair CLR 82.4 66.2 58% 85 30.01 0.0
05 07:55 S 5 10.00 Fair CLR 82.4 66.2 58% 85 30 0.0
05 07:35 SE 6 10.00 Fair CLR 80.6 66.2 62% 83 30 0.0
05 07:15 SE 3 10.00 Fair CLR 78.8 66.2 65% 81 30 0.0
05 06:55 SE 5 10.00 Fair CLR 78.8 66.2 65% 81 29.99 0.0
05 06:35 S 3 10.00 Fair CLR 77 68 74% 79 29.98 0.0
05 06:15 S 5 10.00 Fair CLR 77 66.2 69% 79 29.97 0.0
05 05:55 SE 5 10.00 Fair CLR 77 66.2 69% 79 29.97 0.0
05 05:35 S 5 10.00 Fair CLR 77 66.2 69% 79 29.96 0.0
05 05:15 SE 3 10.00 Fair CLR 77 66.2 69% 79 29.96 0.0
05 04:55 Calm 10.00 Fair CLR 77 66.2 69% 79 29.96 0.0
05 04:35 Calm 10.00 A Few Clouds FEW033 FEW039 FEW045 77 66.2 69% 79 29.95 0.0
05 04:15 SE 5 10.00 Partly Cloudy FEW033 SCT042 77 66.2 69% 79 29.96 0.0
05 03:55 SE 3 10.00 Partly Cloudy FEW036 SCT045 SCT075 78.8 66.2 65% 81 29.95 0.0
05 03:30 Calm 10.00 A Few Clouds FEW043 78.8 64.4 61% 81 29.95 0.0
05 03:15 Calm 10.00 Fair CLR 78.8 64.4 61% 81 29.95 0.0
05 02:55 SE 5 10.00 Fair CLR 78.8 62.6 58% 80 29.95 0.0
05 02:35 SE 5 10.00 Fair CLR 78.8 62.6 58% 80 29.95 0.0
05 02:15 Calm 10.00 Fair CLR 78.8 64.4 61% 81 29.95 0.0
05 01:55 Calm 10.00 Fair CLR 80.6 64.4 58% 82 29.95 0.0
05 01:35 Calm 10.00 Fair CLR 80.6 64.4 58% 82 29.96 0.0
05 01:15 SE 7 10.00 Fair CLR 80.6 64.4 58% 82 29.96 0.0
05 00:55 SE 5 10.00 A Few Clouds FEW065 82.4 64.4 55% 84 29.96 0.0
05 00:35 E 5 10.00 A Few Clouds FEW065 82.4 64.4 55% 84 29.96 0.0
05 00:15 E 5 10.00 A Few Clouds FEW065 82.4 66.2 58% 85 29.96 0.0
04 23:55 E 5 10.00 A Few Clouds FEW060 82.4 66.2 58% 85 29.95 0.0
04 23:35 Calm 10.00 A Few Clouds FEW060 84.2 68 58% 87 29.95 0.0
04 23:15 Calm 10.00 A Few Clouds FEW060 84.2 66.2 55% 87 29.95 0.0
04 22:55 Calm 10.00 Mostly Cloudy BKN055 84.2 64.4 51% 86 29.95 0.0
04 22:35 Calm 10.00 Overcast BKN050 OVC060 84.2 64.4 51% 86 29.94 0.0
04 22:15 Calm 10.00 Mostly Cloudy BKN050 BKN055 86 62.6 46% 87 29.94 0.0
04 21:55 S 5 10.00 Mostly Cloudy BKN049 86 64.4 49% 87 29.94 0.0
04 21:35 S 5 10.00 Mostly Cloudy BKN047 86 64.4 49% 87 29.93 0.0
04 21:15 S 6 10.00 A Few Clouds FEW046 FEW060 87.8 62.6 43% 88 29.93 0.0
04 20:55 S 6 9.00 Fair CLR 87.8 62.6 43% 88 29.93 0.0
04 20:35 S 6 10.00 Fair CLR 89.6 60.8 38% 90 29.93 0.0
04 20:15 SW 6 10.00 Fair CLR 89.6 60.8 38% 90 29.91 0.0
04 19:55 S 6 10.00 A Few Clouds FEW110 91.4 60.8 36% 91 29.9 0.0
04 19:35 SW 3 10.00 Mostly Cloudy BKN110 91.4 60.8 36% 91 29.9 0.0
04 19:15 Calm 10.00 Partly Cloudy SCT120 91.4 60.8 36% 91 29.89 0.0
04 18:55 Calm 10.00 Mostly Cloudy SCT095 BKN120 93.2 57.2 30% 92 29.89 0.0
04 18:35 Calm 10.00 Mostly Cloudy BKN095 BKN120 95 59 30% 94 29.89 0.0
04 18:10 SW 5 10.00 A Few Clouds FEW095 FEW120 95 55.4 26% 93 29.88 0.0
04 17:55 SW 8 10.00 A Few Clouds FEW100 96.8 55.4 25% 95 29.88 0.0
04 17:35 W 6 10.00 Fair CLR 96.8 55.4 25% 95 29.88 0.0
04 17:15 W 8 10.00 Fair CLR 96.8 55.4 25% 95 29.88 0.0
04 16:50 SW 8 G 16 10.00 A Few Clouds FEW095 98.6 55.4 24% 97 29.88 0.0
04 16:35 W 9 10.00 Mostly Cloudy BKN090 98.6 55.4 24% 97 29.88 0.0
04 16:15 Calm 10.00 A Few Clouds FEW100 98.6 55.4 24% 97 29.88 0.0
04 15:50 SW 10 10.00 A Few Clouds FEW095 98.6 55.4 24% 97 29.89 0.0
04 15:35 S 9 10.00 Partly Cloudy SCT095 98.6 55.4 24% 97 29.89 0.0
04 15:15 Vrbl 7 10.00 Partly Cloudy SCT095 98.6 51.8 21% 96 29.89 0.0
04 14:50 Calm 10.00 Fair CLR 98.6 57.2 25% 98 29.9 0.0
04 14:35 Vrbl 6 G 14 10.00 Fair CLR 96.8 59 28% 96 29.91 0.0
04 14:15 SE 9 10.00 A Few Clouds FEW085 96.8 59 28% 96 29.91 0.0
04 13:50 SE 8 10.00 A Few Clouds FEW085 FEW120 95 59 30% 94 29.92 0.0
04 13:35 SE 6 10.00 A Few Clouds FEW120 95 60.8 32% 95 29.93 0.0
04 13:15 Vrbl 7 10.00 Fair CLR 96.8 57.2 27% 96 29.94 0.0
04 12:50 Calm 10.00 Fair CLR 95 62.6 34% 96 29.95 0.0
04 12:35 Calm 10.00 Fair CLR 93.2 62.6 36% 94 29.95 0.0
04 12:15 S 7 10.00 Fair CLR 93.2 62.6 36% 94 29.96 0.0
04 11:55 S 8 10.00 Fair CLR 93.2 64.4 39% 95 29.97 0.0
04 11:35 Calm 10.00 Fair CLR 91.4 64.4 41% 93 29.98 0.0
04 11:15 S 7 G 14 10.00 Fair CLR 91.4 64.4 41% 93 29.99 0.0
04 10:50 S 8 G 14 10.00 Fair CLR 91.4 66.2 44% 94 29.99 0.0
04 10:15 S 12 10.00 Fair CLR 89.6 66.2 46% 92 30 0.0
04 09:50 S 10 10.00 Fair CLR 87.8 68 52% 91 30 0.0
04 09:35 S 12 10.00 Fair CLR 87.8 68 52% 91 30 0.0
04 09:15 SE 10 G 17 10.00 Fair CLR 86 68 55% 89 29.99 0.0
04 08:50 S 10 10.00 Fair CLR 84.2 68 58% 87 29.99 0.0
04 08:35 SE 8 10.00 Fair CLR 84.2 68 58% 87 29.99 0.0
04 08:15 S 9 10.00 Fair CLR 82.4 69.8 66% 86 29.99 0.0
04 07:50 SE 8 10.00 Fair CLR 80.6 69.8 70% 84 29.99 0.0
04 07:35 SE 7 10.00 Fair CLR 80.6 69.8 70% 84 29.99 0.0
04 07:15 S 9 10.00 Fair CLR 78.8 69.8 74% 81 29.98 0.0
04 06:50 S 8 10.00 Fair CLR 77 69.8 79% 79 29.97 0.0
04 06:30 S 7 10.00 Fair CLR 77 69.8 79% 79 29.97 0.0
04 06:15 S 8 10.00 Fair CLR 77 69.8 79% 79 29.96 0.0
04 05:50 S 8 10.00 A Few Clouds FEW034 FEW042 77 69.8 79% 79 29.95 0.0
04 05:35 S 8 10.00 Partly Cloudy FEW026 SCT034 SCT042 77 69.8 79% 79 29.95 0.0
04 05:15 SE 6 10.00 Mostly Cloudy SCT032 SCT038 BKN044 78.8 68 70% 81 29.94 0.0
04 04:50 SE 8 10.00 Mostly Cloudy FEW027 SCT031 BKN040 78.8 68 70% 81 29.94 0.0
04 04:35 SE 8 10.00 Mostly Cloudy SCT028 SCT033 BKN039 78.8 68 70% 81 29.94 0.0
04 04:15 S 7 10.00 Mostly Cloudy FEW030 SCT040 BKN048 78.8 68 70% 81 29.94 0.0
04 03:50 SE 8 10.00 Mostly Cloudy FEW032 SCT041 BKN049 78.8 68 70% 81 29.93 0.0
04 03:35 SE 7 10.00 Partly Cloudy FEW041 SCT048 78.8 68 70% 81 29.93 0.0
04 03:15 S 10 10.00 A Few Clouds FEW040 FEW049 78.8 68 70% 81 29.93 0.0
04 02:50 SE 10 10.00 Mostly Cloudy SCT040 SCT048 BKN080 80.6 68 66% 83 29.92 0.0
04 02:35 S 12 G 17 10.00 Mostly Cloudy FEW036 SCT042 BKN080 80.6 68 66% 83 29.92 0.0
04 02:15 SE 9 10.00 Mostly Cloudy SCT035 SCT046 BKN080 80.6 68 66% 83 29.92 0.0
04 01:35 SE 10 G 17 10.00 Mostly Cloudy FEW038 BKN100 BKN120 82.4 68 62% 85 29.92 0.0
04 01:15 SE 9 G 15 10.00 Overcast FEW041 BKN090 OVC110 82.4 68 62% 85 29.92 0.0
04 00:50 SE 10 10.00 Overcast FEW041 SCT085 OVC110 82.4 68 62% 85 29.93 0.0
04 00:35 SE 9 10.00 Mostly Cloudy BKN095 BKN120 82.4 68 62% 85 29.93 0.0
04 00:15 SE 8 G 14 10.00 Mostly Cloudy FEW036 FEW042 BKN090 82.4 68 62% 85 29.93 0.0
03 23:55 SE 8 G 16 10.00 Mostly Cloudy FEW043 BKN090 82.4 66.2 58% 85 29.93 0.0
03 23:35 S 12 10.00 Mostly Cloudy FEW044 BKN085 82.4 66.2 58% 85 29.93 0.0
03 23:15 SE 8 10.00 Mostly Cloudy BKN085 82.4 68 62% 85 29.93 0.0
03 22:55 SE 8 10.00 Mostly Cloudy BKN090 82.4 68 62% 85 29.93 0.0
03 22:35 SE 8 10.00 Overcast FEW042 OVC090 84.2 68 58% 87 29.93 0.0
03 22:15 SE 9 10.00 Overcast FEW042 BKN080 OVC090 84.2 68 58% 87 29.93 0.0
03 21:55 SE 7 G 13 10.00 Overcast SCT080 OVC095 84.2 66.2 55% 87 29.93 0.0
03 21:35 SE 9 G 15 10.00 Overcast BKN080 OVC090 82.4 66.2 58% 85 29.93 0.0
03 21:15 SE 9 10.00 Overcast BKN075 OVC095 82.4 68 62% 85 29.92 0.0
03 20:55 SE 8 G 15 10.00 NULL NULL 82.4 68 62% 85 29.92 0.0 0.03
03 20:35 SE 10 G 16 3.00 Rain Haze NULL 82.4 69.8 66% 86 29.9 0.0
03 20:15 SE 10 10.00 Overcast BKN075 OVC090 86 66.2 52% 88 29.9 0.0
03 19:50 S 12 10.00 Overcast SCT080 OVC090 86 66.2 52% 88 29.89 0.0
03 19:15 SE 6 10.00 Partly Cloudy SCT085 86 68 55% 89 29.87 0.0
03 18:50 S 6 10.00 Fair CLR 87.8 66.2 49% 90 29.87 0.0
03 18:35 S 7 10.00 Fair CLR 87.8 66.2 49% 90 29.87 0.0
03 18:15 S 10 10.00 Fair CLR 89.6 66.2 46% 92 29.86 0.0
03 17:55 S 10 10.00 A Few Clouds FEW075 91.4 66.2 44% 94 29.86 0.0
03 17:35 SE 5 10.00 Fair CLR 93.2 62.6 36% 94 29.86 0.0
03 17:15 Calm 10.00 Fair CLR 93.2 62.6 36% 94 29.85 0.0
03 16:55 SE 5 10.00 Fair CLR 93.2 64.4 39% 95 29.86 0.0
03 16:35 E 3 10.00 Fair CLR 93.2 62.6 36% 94 29.87 0.0
03 16:15 NE 3 10.00 Fair CLR 95 62.6 34% 96 29.87 0.0
03 15:50 Calm 10.00 Fair CLR 95 62.6 34% 96 29.87 0.0
03 15:35 Calm 10.00 Fair CLR 95 62.6 34% 96 29.87 0.0
03 15:15 SE 5 10.00 Fair CLR 93.2 62.6 36% 94 29.88 0.0
03 14:50 Calm 10.00 NULL NULL 93.2 62.6 36% 94 29.89 0.0
03 14:35 E 5 G 12 10.00 Fair CLR 93.2 62.6 36% 94 29.89 0.0
03 14:15 Calm 10.00 Fair CLR 93.2 62.6 36% 94 29.9 0.0
03 13:50 Calm 10.00 NULL NULL 91.4 62.6 38% 92 29.92 0.0
03 13:35 S 7 10.00 NULL NULL 91.4 62.6 38% 92 29.92 0.0
03 13:15 Calm 10.00 NULL NULL 91.4 60.8 36% 91 29.93 0.0
03 12:50 Calm 10.00 NULL NULL 89.6 64.4 43% 91 29.95 0.0
03 12:35 Calm 10.00 NULL NULL 89.6 62.6 41% 90 29.95 0.0
03 12:15 SE 6 10.00 NULL NULL 89.6 64.4 43% 91 29.96 0.0
03 11:50 Calm 10.00 NULL NULL 87.8 64.4 46% 89 29.98 0.0
03 11:30 Calm 10.00 NULL NULL 87.8 64.4 46% 89 29.99 0.0
03 11:15 Vrbl 3 10.00 Fair CLR 87.8 66.2 49% 90 29.99 0.0
03 10:50 SE 6 10.00 Fair CLR 86 66.2 52% 88 30 0.0
03 10:35 SE 6 10.00 Fair CLR 86 68 55% 89 30.01 0.0
03 10:15 SE 6 10.00 A Few Clouds FEW100 84.2 69.8 62% 88 30.01 0.0
Date Time (mst) Wind (mph) Vis. (mi.) Weather Sky Cond. Air Dwpt Max. Min. Relative Humidity Wind Chill (°F) Heat Index (°F) altimeter (in) sea level (mb) 1 hr 3 hr 6 hr
6 hour
Temperature (ºF) Pressure Precipitation (in)